Time;durP1;ratioP1;P1;durP2;ratioP2;P2;SDS_P1;SDS_P2;PMS_P1;PMS_P2;Temp;Humidity;BMP_temperature;BMP_pressure;BME280_temperature;BME280_humidity;BME280_pressure;Samples;Min_cycle;Max_cycle;Signal;HPM_P1;HPM_P2
2023/12/22 00:01:19;;;;;;;12.00;1.77;;;5.80;99.90;;;;;;5093947;28;20543;-56
2023/12/22 00:03:49;;;;;;;10.73;2.37;;;5.90;99.90;;;;;;5093653;28;20055;-56
2023/12/22 00:06:15;;;;;;;12.70;1.90;;;6.00;99.90;;;;;;5092940;28;20052;-56
2023/12/22 00:08:41;;;;;;;14.07;2.50;;;6.10;99.90;;;;;;5093908;28;20048;-56
2023/12/22 00:11:07;;;;;;;14.73;2.73;;;6.20;99.90;;;;;;5093973;28;20483;-56
2023/12/22 00:13:33;;;;;;;9.77;1.63;;;6.20;99.90;;;;;;5093735;28;20054;-53
2023/12/22 00:16:00;;;;;;;8.93;1.23;;;6.20;99.90;;;;;;5093699;28;20048;-55
2023/12/22 00:18:26;;;;;;;8.90;1.13;;;6.20;99.90;;;;;;5093712;28;20759;-55
2023/12/22 00:20:52;;;;;;;9.60;1.45;;;6.00;99.90;;;;;;5093690;28;20429;-56
2023/12/22 00:23:17;;;;;;;8.40;1.53;;;5.90;99.90;;;;;;5093782;28;20052;-55
2023/12/22 00:25:43;;;;;;;7.13;0.93;;;5.70;99.90;;;;;;5093855;28;20091;-56
2023/12/22 00:28:09;;;;;;;8.63;0.97;;;5.60;99.90;;;;;;5093715;28;20040;-56
2023/12/22 00:30:35;;;;;;;8.93;1.50;;;5.60;99.90;;;;;;5093528;28;20046;-55
2023/12/22 00:33:00;;;;;;;8.03;1.00;;;5.60;99.90;;;;;;5093445;28;20403;-56
2023/12/22 00:35:26;;;;;;;8.53;1.33;;;5.60;99.90;;;;;;5093577;28;20549;-56
2023/12/22 00:37:52;;;;;;;6.67;1.30;;;5.60;99.90;;;;;;5093603;28;20083;-56
2023/12/22 00:40:18;;;;;;;7.10;1.50;;;5.70;99.90;;;;;;5093353;28;20525;-57
2023/12/22 00:42:44;;;;;;;9.87;1.23;;;5.70;99.90;;;;;;5093598;28;20075;-56
2023/12/22 00:45:10;;;;;;;8.93;1.50;;;5.80;99.90;;;;;;5093533;28;20048;-56
2023/12/22 00:47:36;;;;;;;6.82;0.90;;;5.80;99.90;;;;;;5093308;28;20091;-56
2023/12/22 00:50:04;;;;;;;8.18;0.80;;;5.80;99.90;;;;;;5093538;28;20040;-56
2023/12/22 00:52:30;;;;;;;6.45;0.95;;;5.80;99.90;;;;;;5097340;28;20051;-56
2023/12/22 00:54:56;;;;;;;8.80;1.63;;;5.80;99.90;;;;;;5097692;28;20040;-56
2023/12/22 00:57:22;;;;;;;8.17;1.40;;;5.80;99.90;;;;;;5097285;28;20040;-55
2023/12/22 00:59:47;;;;;;;13.30;1.63;;;5.70;99.90;;;;;;5097342;28;20047;-56
2023/12/22 01:02:17;;;;;;;11.77;1.77;;;5.80;99.90;;;;;;5097077;28;20519;-56
2023/12/22 01:04:43;;;;;;;14.77;2.03;;;5.80;99.90;;;;;;5097280;28;20055;-56
2023/12/22 01:07:10;;;;;;;14.15;2.15;;;5.80;99.90;;;;;;5097169;28;20051;-55
2023/12/22 01:09:37;;;;;;;11.73;1.90;;;5.90;99.90;;;;;;5097202;28;20245;-56
2023/12/22 01:12:04;;;;;;;8.65;1.73;;;6.00;99.90;;;;;;5097130;28;20044;-55
2023/12/22 01:14:29;;;;;;;;;;;6.00;99.90;;;;;;5097352;28;20048;-56
2023/12/22 01:16:55;;;;;;;12.82;2.05;;;6.00;99.90;;;;;;5096767;28;19927;-56
2023/12/22 01:19:21;;;;;;;6.63;1.60;;;6.10;99.90;;;;;;5097330;28;20051;-56
2023/12/22 01:21:46;;;;;;;12.50;1.83;;;6.00;99.90;;;;;;5095818;28;20093;-56
2023/12/22 01:24:12;;;;;;;12.30;1.90;;;6.00;99.90;;;;;;5096832;28;20040;-56
2023/12/22 01:26:38;;;;;;;11.10;1.67;;;6.10;99.90;;;;;;5096127;28;20052;-55
2023/12/22 01:29:03;;;;;;;15.57;2.43;;;6.10;99.90;;;;;;5096779;28;20055;-55
2023/12/22 01:31:29;;;;;;;16.17;2.27;;;6.10;99.90;;;;;;5095781;28;20097;-55
2023/12/22 01:33:55;;;;;;;8.43;1.43;;;6.20;99.90;;;;;;5096949;28;20047;-54
2023/12/22 01:36:20;;;;;;;16.13;2.23;;;6.20;99.90;;;;;;5096544;28;20048;-55
2023/12/22 01:38:46;;;;;;;9.10;2.17;;;6.20;99.90;;;;;;5096464;28;20097;-56
2023/12/22 01:41:12;;;;;;;11.40;2.00;;;6.30;99.90;;;;;;5095813;28;20403;-55
2023/12/22 01:43:37;;;;;;;11.20;1.70;;;6.30;99.90;;;;;;5096513;28;20040;-55
2023/12/22 01:46:03;;;;;;;13.50;2.37;;;6.30;99.90;;;;;;5096792;28;20089;-55
2023/12/22 01:48:30;;;;;;;11.88;1.98;;;6.30;99.90;;;;;;5096455;28;20123;-54
2023/12/22 01:50:58;;;;;;;10.77;2.33;;;6.30;99.90;;;;;;5096403;28;20057;-54
2023/12/22 01:53:25;;;;;;;8.45;1.77;;;6.40;99.90;;;;;;5096342;28;20063;-55
2023/12/22 01:55:51;;;;;;;;;;;6.30;99.90;;;;;;5096704;28;20522;-56
2023/12/22 01:58:19;;;;;;;9.13;1.23;;;6.20;99.90;;;;;;5096196;28;19996;-55
2023/12/22 02:00:45;;;;;;;7.15;1.10;;;6.20;99.90;;;;;;5096166;28;20119;-55
2023/12/22 02:03:12;;;;;;;4.95;0.93;;;6.10;99.90;;;;;;5095620;28;20044;-55
2023/12/22 02:05:40;;;;;;;3.75;1.00;;;6.10;99.90;;;;;;5096122;28;20047;-56
2023/12/22 02:08:06;;;;;;;11.05;1.52;;;6.10;99.90;;;;;;5095003;28;20048;-55
2023/12/22 02:10:31;;;;;;;10.87;1.53;;;6.00;99.90;;;;;;5095951;28;20046;-55
2023/12/22 02:12:57;;;;;;;10.30;1.40;;;6.00;99.90;;;;;;5095881;28;20055;-54
2023/12/22 02:15:23;;;;;;;9.47;2.07;;;6.00;99.90;;;;;;5095192;28;20444;-55
2023/12/22 02:18:02;;;;;;;11.97;1.53;;;6.00;99.90;;;;;;5095865;28;20131;-56
2023/12/22 02:20:29;;;;;;;5.25;0.68;;;6.10;99.90;;;;;;5095571;28;20043;-54
2023/12/22 02:22:55;;;;;;;;;;;6.10;99.90;;;;;;5095214;28;20109;-55
2023/12/22 02:25:21;;;;;;;9.57;0.70;;;6.00;99.90;;;;;;5077940;28;19924;-56
2023/12/22 02:27:53;;;;;;;6.87;0.83;;;5.90;99.90;;;;;;5095462;28;20051;-52
2023/12/22 02:30:44;;;;;;;7.97;1.30;;;5.90;99.90;;;;;;5095538;28;20036;-56
2023/12/22 02:33:12;;;;;;;3.88;0.68;;;5.80;99.90;;;;;;5095691;28;20044;-55
2023/12/22 02:35:41;;;;;;;4.57;1.00;;;5.70;99.90;;;;;;5095528;28;20048;-53
2023/12/22 02:38:07;;;;;;;8.05;1.33;;;5.80;99.90;;;;;;5094251;28;20044;-56
2023/12/22 02:40:34;;;;;;;9.18;1.40;;;5.70;99.90;;;;;;5095330;28;20411;-56
2023/12/22 02:43:00;;;;;;;10.63;1.67;;;5.70;99.90;;;;;;5095393;28;20052;-52
2023/12/22 02:45:26;;;;;;;;;;;5.70;99.90;;;;;;5095811;28;20104;-56
2023/12/22 02:47:52;;;;;;;8.75;1.38;;;5.80;99.90;;;;;;5095217;28;20015;-56
2023/12/22 02:50:17;;;;;;;11.73;1.70;;;5.80;99.90;;;;;;5094195;28;20048;-55
2023/12/22 02:52:43;;;;;;;8.80;1.00;;;5.80;99.90;;;;;;5095029;28;20185;-55
2023/12/22 02:55:09;;;;;;;14.10;2.53;;;5.90;99.90;;;;;;5095096;28;20048;-56
2023/12/22 02:57:35;;;;;;;12.57;1.33;;;5.90;99.90;;;;;;5095651;28;20048;-56
2023/12/22 03:00:01;;;;;;;10.77;2.10;;;5.90;99.90;;;;;;5095210;28;20386;-53
2023/12/22 03:02:27;;;;;;;9.10;1.53;;;6.00;99.90;;;;;;5094890;28;20270;-54
2023/12/22 03:04:52;;;;;;;7.40;1.00;;;6.00;99.90;;;;;;5094943;28;20040;-53
2023/12/22 03:07:18;;;;;;;4.33;0.67;;;6.00;99.90;;;;;;5094699;28;20040;-55
2023/12/22 03:09:44;;;;;;;1.90;0.37;;;5.70;99.90;;;;;;5095115;28;20085;-55
2023/12/22 03:12:10;;;;;;;4.50;0.97;;;5.50;99.90;;;;;;5094685;28;20075;-55
2023/12/22 03:14:36;;;;;;;5.60;0.73;;;5.40;99.90;;;;;;5094602;28;20048;-55
2023/12/22 03:17:03;;;;;;;7.22;0.82;;;5.30;99.90;;;;;;5094755;28;20039;-54
2023/12/22 03:19:29;;;;;;;6.63;0.85;;;5.10;99.90;;;;;;5094486;28;20063;-54
2023/12/22 03:21:56;;;;;;;7.03;1.27;;;5.00;99.90;;;;;;5092907;28;20498;-56
2023/12/22 03:24:23;;;;;;;5.70;0.80;;;5.00;99.90;;;;;;5093911;28;20062;-55
2023/12/22 03:26:52;;;;;;;5.25;1.17;;;5.10;99.90;;;;;;5094703;28;20052;-55
2023/12/22 03:29:18;;;;;;;7.88;1.10;;;5.10;99.90;;;;;;5094468;28;20101;-55
2023/12/22 03:31:45;;;;;;;7.38;1.15;;;5.10;99.90;;;;;;5094400;28;20044;-55
2023/12/22 03:34:11;;;;;;;6.85;1.63;;;5.20;99.90;;;;;;5093386;28;20051;-55
2023/12/22 03:36:37;;;;;;;6.40;1.27;;;5.20;99.90;;;;;;5094188;28;20044;-55
2023/12/22 03:39:03;;;;;;;10.23;2.00;;;5.30;99.90;;;;;;5094312;28;20776;-56
2023/12/22 03:41:29;;;;;;;10.68;2.20;;;5.30;99.90;;;;;;5094276;28;20048;-55
2023/12/22 03:43:55;;;;;;;11.73;2.17;;;5.40;99.90;;;;;;5094211;28;20050;-56
2023/12/22 03:46:21;;;;;;;11.05;2.08;;;5.60;99.90;;;;;;5094225;28;20104;-55
2023/12/22 03:48:47;;;;;;;11.70;1.77;;;5.70;99.90;;;;;;5093279;28;20130;-56
2023/12/22 03:51:14;;;;;;;8.50;1.00;;;5.80;99.90;;;;;;5093927;28;20530;-56
2023/12/22 03:53:41;;;;;;;8.48;0.90;;;5.80;99.90;;;;;;5094109;28;20372;-56
2023/12/22 03:56:08;;;;;;;15.40;1.35;;;5.80;99.90;;;;;;5094368;28;20036;-55
2023/12/22 03:58:34;;;;;;;8.43;1.48;;;5.80;99.90;;;;;;5093884;28;20052;-56
2023/12/22 04:01:00;;;;;;;12.63;1.30;;;5.80;99.90;;;;;;5093604;28;20554;-55
2023/12/22 04:03:26;;;;;;;12.37;1.30;;;5.90;99.90;;;;;;5092579;28;20082;-55
2023/12/22 04:05:52;;;;;;;5.73;1.10;;;6.00;99.90;;;;;;5093574;28;20105;-55
2023/12/22 04:08:17;;;;;;;6.97;1.43;;;6.00;99.90;;;;;;5093993;28;20085;-54
2023/12/22 04:10:44;;;;;;;6.27;0.87;;;5.90;99.90;;;;;;5094233;28;20525;-56
2023/12/22 04:13:10;;;;;;;11.65;1.35;;;5.90;99.90;;;;;;5093731;28;20487;-55
2023/12/22 04:15:35;;;;;;;4.70;0.80;;;5.80;99.90;;;;;;5093853;28;20055;-54
2023/12/22 04:18:01;;;;;;;10.17;1.73;;;5.70;99.90;;;;;;5093663;28;20048;-54
2023/12/22 04:20:27;;;;;;;6.83;1.23;;;5.70;99.90;;;;;;5093390;28;20066;-55
2023/12/22 04:22:52;;;;;;;12.43;1.70;;;5.70;99.90;;;;;;5093614;28;20116;-56
2023/12/22 04:25:18;;;;;;;9.73;1.67;;;5.60;99.90;;;;;;5093843;28;20048;-55
2023/12/22 04:27:44;;;;;;;10.57;1.57;;;5.60;99.90;;;;;;5099143;28;20051;-56
2023/12/22 04:30:11;;;;;;;17.55;2.22;;;5.70;99.90;;;;;;5100219;28;20036;-56
2023/12/22 04:32:36;;;;;;;13.18;2.50;;;5.60;99.90;;;;;;5100241;28;20047;-53
2023/12/22 04:35:02;;;;;;;10.50;2.27;;;5.70;99.90;;;;;;5100248;28;20399;-55
2023/12/22 04:37:28;;;;;;;10.25;1.92;;;5.70;99.90;;;;;;5100499;28;20055;-56
2023/12/22 04:39:54;;;;;;;10.60;1.50;;;5.80;99.90;;;;;;5100486;28;20047;-55
2023/12/22 04:42:19;;;;;;;14.40;2.33;;;5.90;99.90;;;;;;5099322;28;20043;-55
2023/12/22 04:44:45;;;;;;;8.03;1.10;;;6.00;99.90;;;;;;5100577;28;20093;-56
2023/12/22 04:47:12;;;;;;;11.10;1.10;;;6.10;99.90;;;;;;5100362;28;20566;-56
2023/12/22 04:49:38;;;;;;;11.40;1.42;;;6.10;99.90;;;;;;5100187;28;20123;-55
2023/12/22 04:52:04;;;;;;;10.93;1.30;;;6.30;99.90;;;;;;5099133;28;20087;-55
2023/12/22 04:54:29;;;;;;;14.60;2.07;;;6.20;99.90;;;;;;5100562;28;20094;-55
2023/12/22 04:56:55;;;;;;;10.90;2.00;;;6.40;99.90;;;;;;5099169;28;20097;-54
2023/12/22 04:59:21;;;;;;;8.93;1.67;;;6.40;99.90;;;;;;5099983;28;20079;-55
2023/12/22 05:01:47;;;;;;;9.07;1.23;;;6.40;99.90;;;;;;5100175;28;20048;-55
2023/12/22 05:04:12;;;;;;;11.07;1.93;;;6.40;99.90;;;;;;5099832;28;20040;-55
2023/12/22 05:06:38;;;;;;;8.10;1.23;;;6.40;99.90;;;;;;5100328;28;20100;-56
2023/12/22 05:09:04;;;;;;;11.57;1.30;;;6.40;99.90;;;;;;5100267;28;20044;-54
2023/12/22 05:11:30;;;;;;;9.77;1.07;;;6.40;99.90;;;;;;5100348;28;20354;-56
2023/12/22 05:13:55;;;;;;;9.73;1.23;;;6.40;99.90;;;;;;5099955;28;20091;-56
2023/12/22 05:16:21;;;;;;;7.50;1.23;;;6.40;99.90;;;;;;5099900;28;20040;-55
2023/12/22 05:18:47;;;;;;;10.03;1.53;;;6.50;99.90;;;;;;5099812;28;20089;-55
2023/12/22 05:21:16;;;;;;;;;;;6.50;99.90;;;;;;5099411;28;20048;-56
2023/12/22 05:23:42;;;;;;;9.23;1.05;;;6.50;99.90;;;;;;5100027;28;19929;-55
2023/12/22 05:26:08;;;;;;;10.53;1.70;;;6.60;99.90;;;;;;5098942;28;20048;-56
2023/12/22 05:28:33;;;;;;;8.87;0.80;;;6.70;99.90;;;;;;5099843;28;20058;-53
2023/12/22 05:30:59;;;;;;;10.30;1.57;;;6.70;99.90;;;;;;5099863;28;20066;-55
2023/12/22 05:33:25;;;;;;;7.30;1.23;;;6.60;99.90;;;;;;5100094;28;20045;-55
2023/12/22 05:35:51;;;;;;;8.83;1.77;;;6.60;99.90;;;;;;5099671;28;20055;-54
2023/12/22 05:38:17;;;;;;;7.57;1.23;;;6.60;99.90;;;;;;5095866;28;20040;-55
2023/12/22 05:40:42;;;;;;;14.60;1.70;;;6.60;99.90;;;;;;5097087;28;20156;-55
2023/12/22 05:43:08;;;;;;;11.47;1.87;;;6.60;99.90;;;;;;5095212;28;20044;-56
2023/12/22 05:45:34;;;;;;;7.83;1.60;;;6.60;99.90;;;;;;5096280;28;20048;-56
2023/12/22 05:47:59;;;;;;;12.67;1.43;;;6.60;99.90;;;;;;5096435;28;20040;-55
2023/12/22 05:50:26;;;;;;;11.37;1.60;;;6.60;99.90;;;;;;5096476;28;20062;-56
2023/12/22 05:52:51;;;;;;;8.32;1.33;;;6.70;99.90;;;;;;5096392;28;20123;-54
2023/12/22 05:55:17;;;;;;;9.97;1.73;;;6.70;99.90;;;;;;5096310;28;20612;-56
2023/12/22 05:57:43;;;;;;;12.07;1.40;;;6.70;99.90;;;;;;5096555;28;20048;-56
2023/12/22 06:00:11;;;;;;;15.60;2.17;;;6.70;99.90;;;;;;5078180;28;20044;-55
2023/12/22 06:02:38;;;;;;;17.38;1.80;;;6.70;99.90;;;;;;5095893;28;20043;-53
2023/12/22 06:05:04;;;;;;;11.48;1.70;;;6.70;99.90;;;;;;5096208;28;20136;-56
2023/12/22 06:07:30;;;;;;;6.37;1.53;;;6.70;99.90;;;;;;5096080;28;20056;-56
2023/12/22 06:09:55;;;;;;;12.30;2.20;;;6.70;99.90;;;;;;5095074;28;20301;-55
2023/12/22 06:12:21;;;;;;;9.30;1.97;;;6.70;99.90;;;;;;5094893;28;20040;-56
2023/12/22 06:14:46;;;;;;;11.63;1.47;;;6.70;99.90;;;;;;5096104;28;20048;-56
2023/12/22 06:17:12;;;;;;;10.43;1.53;;;6.70;99.90;;;;;;5095841;28;20490;-56
2023/12/22 06:19:38;;;;;;;8.90;1.40;;;6.70;99.90;;;;;;5095799;28;20514;-54
2023/12/22 06:22:04;;;;;;;13.73;2.30;;;6.70;99.90;;;;;;5095573;28;20521;-56
2023/12/22 06:24:29;;;;;;;11.47;1.63;;;6.80;99.90;;;;;;5095591;28;20044;-56
2023/12/22 06:26:55;;;;;;;8.43;1.83;;;6.80;99.90;;;;;;5094435;28;20282;-56
2023/12/22 06:29:21;;;;;;;11.73;1.40;;;6.80;99.90;;;;;;5095707;28;20386;-54
2023/12/22 06:31:50;;;;;;;12.90;1.57;;;6.80;99.90;;;;;;5095304;28;20044;-55
2023/12/22 06:34:17;;;;;;;8.48;1.75;;;6.80;99.90;;;;;;5095514;28;20051;-55
2023/12/22 06:36:43;;;;;;;9.13;1.63;;;6.90;99.90;;;;;;5094655;28;20173;-55
2023/12/22 06:39:09;;;;;;;10.80;1.40;;;6.80;99.90;;;;;;5095418;28;20123;-55
2023/12/22 06:41:34;;;;;;;9.13;1.10;;;6.80;99.90;;;;;;5095283;28;20036;-55
2023/12/22 06:44:00;;;;;;;5.90;0.73;;;6.60;99.90;;;;;;5095410;28;20127;-54
2023/12/22 06:46:26;;;;;;;8.07;0.73;;;6.50;99.90;;;;;;5095310;28;20476;-54
2023/12/22 06:48:53;;;;;;;8.02;1.20;;;6.40;99.90;;;;;;5093840;28;20505;-54
2023/12/22 06:51:19;;;;;;;;;;;6.30;99.90;;;;;;5095615;28;20044;-55
2023/12/22 06:53:45;;;;;;;4.93;0.80;;;6.20;99.90;;;;;;5095072;28;20010;-55
2023/12/22 06:56:22;;;;;;;5.85;0.68;;;6.10;99.90;;;;;;5095119;28;20048;-54
2023/12/22 06:58:50;;;;;;;5.38;0.88;;;6.10;99.90;;;;;;5094232;28;20047;-54
2023/12/22 07:01:20;;;;;;;7.20;0.85;;;6.10;99.90;;;;;;5094919;28;20135;-54
2023/12/22 07:03:49;;;;;;;11.65;1.42;;;6.20;99.90;;;;;;5095415;28;20051;-55
2023/12/22 07:06:18;;;;;;;7.75;1.15;;;6.10;99.90;;;;;;5094917;28;20044;-55
2023/12/22 07:09:03;;;;;;;7.28;1.30;;;6.20;99.90;;;;;;5094752;28;20048;-55
2023/12/22 07:11:29;;;;;;;9.25;1.60;;;6.20;99.90;;;;;;5094707;28;20090;-53
2023/12/22 07:13:54;;;;;;;5.37;1.33;;;6.30;99.90;;;;;;5094858;28;20088;-53
2023/12/22 07:16:20;;;;;;;5.37;1.03;;;6.30;99.90;;;;;;5094763;28;20101;-53
2023/12/22 07:18:46;;;;;;;9.53;1.17;;;6.30;99.90;;;;;;5094812;28;20044;-54
2023/12/22 07:21:17;;;;;;;6.97;1.53;;;6.10;99.90;;;;;;5094432;28;20051;-53
2023/12/22 07:23:44;;;;;;;7.47;0.85;;;5.90;99.90;;;;;;5094698;28;20095;-53
2023/12/22 07:26:09;;;;;;;;;;;5.70;99.90;;;;;;5094823;28;20438;-52
2023/12/22 07:28:35;;;;;;;4.32;0.80;;;5.60;99.90;;;;;;5128308;27;19920;-51
2023/12/22 07:31:01;;;;;;;8.30;1.30;;;5.50;99.90;;;;;;5094648;28;20044;-49
2023/12/22 07:33:26;;;;;;;4.33;0.70;;;5.50;99.90;;;;;;5094344;28;20483;-50
2023/12/22 07:35:52;;;;;;;6.77;1.20;;;5.40;99.90;;;;;;5094540;28;20059;-52
2023/12/22 07:38:18;;;;;;;8.87;1.00;;;5.40;99.90;;;;;;5094425;28;20044;-49
2023/12/22 07:40:43;;;;;;;9.03;1.17;;;5.30;99.90;;;;;;5094191;28;20044;-50
2023/12/22 07:43:09;;;;;;;7.33;0.90;;;5.30;99.90;;;;;;5094118;28;20050;-50
2023/12/22 07:45:35;;;;;;;13.23;1.33;;;5.30;99.90;;;;;;5094620;28;20055;-49
2023/12/22 07:48:00;;;;;;;7.27;1.03;;;5.30;99.90;;;;;;5094234;28;20052;-49
2023/12/22 07:50:27;;;;;;;7.53;1.10;;;5.30;99.90;;;;;;5094154;28;20395;-49
2023/12/22 07:52:53;;;;;;;;;;;5.30;99.90;;;;;;5094382;28;20059;-49
2023/12/22 07:55:18;;;;;;;10.65;1.50;;;5.40;99.90;;;;;;5094069;28;20122;-49
2023/12/22 07:57:45;;;;;;;5.53;1.30;;;5.30;99.90;;;;;;5094243;28;20044;-49
2023/12/22 08:00:11;;;;;;;11.77;1.30;;;5.30;99.90;;;;;;5093369;28;20110;-53
2023/12/22 08:02:37;;;;;;;8.10;1.00;;;5.40;99.90;;;;;;5093973;28;20558;-49
2023/12/22 08:05:03;;;;;;;8.50;1.70;;;5.40;99.90;;;;;;5094022;28;20126;-51
2023/12/22 08:07:29;;;;;;;8.27;0.93;;;5.40;99.90;;;;;;5093858;28;20090;-50
2023/12/22 08:09:55;;;;;;;10.77;2.28;;;5.40;99.90;;;;;;5093807;28;20039;-50
2023/12/22 08:12:21;;;;;;;8.07;1.77;;;5.50;99.90;;;;;;5093912;28;20095;-51
2023/12/22 08:14:47;;;;;;;7.35;1.15;;;5.50;99.90;;;;;;5093874;28;20079;-51
2023/12/22 08:17:13;;;;;;;11.67;1.33;;;5.50;99.90;;;;;;5093691;28;20090;-50
2023/12/22 08:19:42;;;;;;;7.07;1.10;;;5.50;99.90;;;;;;5093635;28;20097;-52
2023/12/22 08:22:09;;;;;;;15.30;1.50;;;5.60;99.90;;;;;;5093874;28;20465;-50
2023/12/22 08:24:35;;;;;;;12.18;1.30;;;5.60;99.90;;;;;;5093622;28;20521;-50
2023/12/22 08:27:00;;;;;;;8.20;1.10;;;5.70;99.90;;;;;;5092972;28;20052;-49
2023/12/22 08:29:26;;;;;;;5.57;1.30;;;5.70;99.90;;;;;;5094004;28;20549;-50
2023/12/22 08:31:53;;;;;;;10.43;1.73;;;5.80;99.90;;;;;;5093764;28;20067;-50
2023/12/22 08:34:19;;;;;;;;;;;5.80;99.90;;;;;;5093139;28;20120;-49
2023/12/22 08:36:44;;;;;;;12.18;1.48;;;5.80;99.90;;;;;;5093666;28;20378;-53
2023/12/22 08:39:10;;;;;;;11.67;1.73;;;5.80;99.90;;;;;;5093548;28;20055;-50
2023/12/22 08:41:37;;;;;;;8.97;0.87;;;5.90;99.90;;;;;;5093664;28;20089;-54
2023/12/22 08:44:06;;;;;;;9.68;1.08;;;6.00;99.90;;;;;;5093786;28;20144;-53
2023/12/22 08:46:33;;;;;;;13.18;1.50;;;5.90;99.90;;;;;;5093414;28;20040;-49
2023/12/22 08:49:02;;;;;;;5.55;1.00;;;6.00;99.90;;;;;;5093391;28;20040;-54
2023/12/22 08:51:28;;;;;;;6.68;1.40;;;6.10;99.90;;;;;;5093317;28;20054;-53
2023/12/22 08:53:55;;;;;;;11.73;1.23;;;6.10;99.90;;;;;;5093210;28;20506;-49
2023/12/22 08:56:24;;;;;;;8.18;0.98;;;6.10;99.90;;;;;;5093553;28;20065;-52
2023/12/22 08:58:52;;;;;;;9.30;1.58;;;6.10;99.90;;;;;;5092092;28;20491;-49
2023/12/22 09:01:18;;;;;;;8.25;1.45;;;6.10;99.90;;;;;;5092158;28;20499;-50
2023/12/22 09:03:46;;;;;;;6.47;1.08;;;6.10;99.90;;;;;;5093381;28;20044;-50
2023/12/22 09:06:22;;;;;;;11.38;1.10;;;6.10;99.90;;;;;;5093291;28;20113;-50
2023/12/22 09:08:48;;;;;;;8.13;1.13;;;6.10;99.90;;;;;;5093717;28;20044;-53
2023/12/22 09:11:17;;;;;;;13.07;1.67;;;6.10;99.90;;;;;;5093402;28;20044;-50
2023/12/22 09:13:43;;;;;;;7.97;1.20;;;6.10;99.90;;;;;;5097461;28;20044;-50
2023/12/22 09:16:11;;;;;;;5.53;1.10;;;6.10;99.90;;;;;;5097077;28;20044;-50
2023/12/22 09:18:37;;;;;;;9.25;1.77;;;6.20;99.90;;;;;;5096805;28;20048;-49
2023/12/22 09:21:03;;;;;;;7.80;1.00;;;6.10;99.90;;;;;;5096610;28;20044;-50
2023/12/22 09:23:29;;;;;;;3.93;1.03;;;6.20;99.90;;;;;;5097278;28;20048;-51
2023/12/22 09:25:55;;;;;;;5.47;1.17;;;6.20;99.90;;;;;;5096042;28;20059;-50
2023/12/22 09:28:20;;;;;;;6.30;0.77;;;6.20;99.90;;;;;;5096973;28;20040;-51
2023/12/22 09:30:46;;;;;;;8.10;1.43;;;6.20;99.90;;;;;;5096899;28;20150;-49
2023/12/22 09:33:12;;;;;;;8.67;1.10;;;6.20;99.90;;;;;;5096784;28;20054;-50
2023/12/22 09:35:41;;;;;;;7.40;1.10;;;6.30;99.90;;;;;;5097212;28;20116;-51
2023/12/22 09:38:10;;;;;;;6.60;1.10;;;6.20;99.90;;;;;;5096660;28;20055;-49
2023/12/22 09:40:36;;;;;;;5.07;1.02;;;6.30;99.90;;;;;;5096439;28;20036;-49
2023/12/22 09:43:05;;;;;;;11.90;1.10;;;6.30;99.90;;;;;;5096582;28;20051;-53
2023/12/22 09:45:33;;;;;;;9.25;2.20;;;6.30;99.90;;;;;;5096619;28;20101;-52
2023/12/22 09:48:01;;;;;;;9.23;1.58;;;6.30;99.90;;;;;;5096526;28;20390;-53
2023/12/22 09:50:27;;;;;;;13.90;1.23;;;6.40;99.90;;;;;;5096549;28;20051;-53
2023/12/22 09:52:53;;;;;;;5.72;1.25;;;6.30;99.90;;;;;;5096394;28;20040;-52
2023/12/22 09:55:22;;;;;;;7.68;1.15;;;6.40;99.90;;;;;;5096262;28;20043;-52
2023/12/22 09:57:49;;;;;;;4.78;0.80;;;6.40;99.90;;;;;;5096454;28;20044;-53
2023/12/22 10:00:15;;;;;;;7.60;1.10;;;6.40;99.90;;;;;;5096050;28;20047;-52
2023/12/22 10:02:45;;;;;;;6.15;0.90;;;6.40;99.90;;;;;;5096088;28;20463;-54
2023/12/22 10:05:13;;;;;;;9.43;1.52;;;6.50;99.90;;;;;;5096183;28;20116;-54
2023/12/22 10:07:41;;;;;;;6.00;0.80;;;6.50;99.90;;;;;;5094861;28;20528;-53
2023/12/22 10:10:07;;;;;;;6.65;0.82;;;6.50;99.90;;;;;;5095161;28;20135;-52
2023/12/22 10:12:34;;;;;;;5.45;0.93;;;6.60;99.90;;;;;;5096151;28;20571;-53
2023/12/22 10:15:00;;;;;;;8.23;0.90;;;6.60;99.90;;;;;;5095844;28;20052;-53
2023/12/22 10:17:27;;;;;;;6.65;0.75;;;6.70;99.90;;;;;;5096014;28;20051;-53
2023/12/22 10:19:52;;;;;;;9.82;0.93;;;6.70;99.90;;;;;;5095938;28;20079;-53
2023/12/22 10:22:18;;;;;;;5.97;1.20;;;6.70;99.90;;;;;;5095662;28;20148;-53
2023/12/22 10:24:50;;;;;;;7.40;1.00;;;6.80;99.90;;;;;;5095002;28;20056;-52
2023/12/22 10:27:23;;;;;;;10.18;1.48;;;6.80;99.90;;;;;;5094820;28;20058;-52
2023/12/22 10:29:50;;;;;;;6.07;0.98;;;6.80;99.90;;;;;;5095539;28;20051;-52
2023/12/22 10:32:16;;;;;;;4.38;0.75;;;6.90;99.90;;;;;;5095662;28;20089;-49
2023/12/22 10:34:42;;;;;;;4.70;1.15;;;6.90;99.90;;;;;;5095835;28;20475;-52
2023/12/22 10:37:09;;;;;;;4.63;0.60;;;6.90;99.90;;;;;;5094509;28;20084;-52
2023/12/22 10:39:37;;;;;;;7.80;1.45;;;6.90;99.90;;;;;;5095202;28;20399;-51
2023/12/22 10:42:03;;;;;;;7.78;1.60;;;6.90;99.90;;;;;;5095420;28;20487;-50
2023/12/22 10:44:29;;;;;;;5.20;0.93;;;7.00;99.90;;;;;;5095281;28;20077;-50
2023/12/22 10:46:56;;;;;;;4.97;0.67;;;7.00;99.90;;;;;;5095448;28;20284;-49
2023/12/22 10:49:23;;;;;;;8.45;1.05;;;7.00;99.90;;;;;;5095210;28;20048;-50
2023/12/22 10:51:49;;;;;;;7.55;0.90;;;7.00;99.90;;;;;;5095386;28;20045;-52
2023/12/22 10:54:16;;;;;;;2.83;0.65;;;7.00;99.90;;;;;;5095231;28;20120;-49
2023/12/22 10:56:42;;;;;;;;;;;7.10;99.90;;;;;;5095330;28;20048;-49
2023/12/22 10:59:09;;;;;;;8.63;0.95;;;7.10;99.90;;;;;;5094680;28;20066;-50
2023/12/22 11:01:39;;;;;;;4.53;0.70;;;7.10;99.90;;;;;;5095052;28;20509;-49
2023/12/22 11:04:07;;;;;;;6.07;1.10;;;7.10;99.90;;;;;;5095535;28;20048;-51
2023/12/22 11:06:37;;;;;;;7.50;1.10;;;7.10;99.90;;;;;;5095006;28;20040;-50
2023/12/22 11:09:12;;;;;;;9.70;1.08;;;7.10;99.90;;;;;;5094894;28;20449;-49
2023/12/22 11:11:39;;;;;;;5.47;0.77;;;7.20;99.90;;;;;;5094724;28;20062;-49
2023/12/22 11:14:06;;;;;;;8.45;1.00;;;7.20;99.90;;;;;;5076949;28;20067;-49
2023/12/22 11:16:34;;;;;;;5.45;1.02;;;7.20;99.90;;;;;;5094764;28;20087;-49
2023/12/22 11:19:02;;;;;;;6.07;0.68;;;7.20;99.90;;;;;;5093579;28;20123;-50
2023/12/22 11:21:29;;;;;;;6.55;0.80;;;7.20;99.90;;;;;;5094608;28;20051;-52
2023/12/22 11:23:55;;;;;;;7.63;0.77;;;7.20;99.90;;;;;;5093344;28;20135;-49
2023/12/22 11:26:22;;;;;;;6.95;0.98;;;7.30;99.90;;;;;;5094655;28;20051;-51
2023/12/22 11:28:50;;;;;;;5.43;0.82;;;7.20;99.90;;;;;;5093606;28;20087;-49
2023/12/22 11:31:17;;;;;;;4.47;0.80;;;7.30;99.90;;;;;;5094615;28;20051;-49
2023/12/22 11:33:47;;;;;;;8.73;0.90;;;7.40;99.90;;;;;;5094406;28;20044;-49
2023/12/22 11:36:14;;;;;;;5.78;0.70;;;7.30;99.90;;;;;;5093306;28;20099;-50
2023/12/22 11:38:41;;;;;;;5.53;0.70;;;7.30;99.90;;;;;;5094145;28;20040;-49
2023/12/22 11:41:15;;;;;;;4.80;0.80;;;7.30;99.90;;;;;;5094425;28;20075;-49
2023/12/22 11:43:41;;;;;;;5.30;1.08;;;7.30;99.90;;;;;;5094619;28;20040;-49
2023/12/22 11:46:09;;;;;;;6.43;1.20;;;7.40;99.90;;;;;;5094525;28;20110;-49
2023/12/22 11:48:34;;;;;;;10.38;1.33;;;7.40;99.90;;;;;;5093061;28;20052;-49
2023/12/22 11:51:00;;;;;;;8.70;1.40;;;7.40;99.90;;;;;;5093988;28;20085;-51
2023/12/22 11:53:34;;;;;;;9.73;1.23;;;7.40;99.90;;;;;;5094196;28;20054;-50
2023/12/22 11:56:10;;;;;;;5.88;0.88;;;7.40;99.90;;;;;;5094374;28;20370;-49
2023/12/22 11:58:36;;;;;;;4.18;0.82;;;7.40;99.90;;;;;;5094010;28;20046;-49
2023/12/22 12:01:05;;;;;;;10.97;1.33;;;7.40;99.90;;;;;;5093973;28;20048;-49
2023/12/22 12:03:32;;;;;;;7.10;1.00;;;7.40;99.90;;;;;;5093850;28;20087;-49
2023/12/22 12:06:17;;;;;;;7.68;1.10;;;7.50;99.90;;;;;;5094043;28;20376;-49
2023/12/22 12:08:43;;;;;;;7.35;1.73;;;7.40;99.90;;;;;;5094480;28;20101;-49
2023/12/22 12:11:09;;;;;;;4.60;0.90;;;7.50;99.90;;;;;;5094016;28;20051;-50
2023/12/22 12:13:41;;;;;;;8.70;1.10;;;7.50;99.90;;;;;;5093952;28;20047;-50
2023/12/22 12:16:07;;;;;;;7.40;1.38;;;7.50;99.90;;;;;;5092494;28;20052;-50
2023/12/22 12:18:34;;;;;;;4.37;0.97;;;7.50;99.90;;;;;;5093654;28;20051;-48
2023/12/22 12:21:00;;;;;;;7.57;1.30;;;7.50;99.90;;;;;;5093575;28;20092;-48
2023/12/22 12:23:27;;;;;;;5.68;0.80;;;7.40;99.90;;;;;;5093913;28;20043;-49
2023/12/22 12:25:55;;;;;;;7.10;0.77;;;7.40;99.90;;;;;;5093762;28;20387;-53
2023/12/22 12:28:29;;;;;;;8.90;1.17;;;7.40;99.90;;;;;;5093688;28;20044;-50
2023/12/22 12:31:08;;;;;;;4.03;0.40;;;7.40;99.90;;;;;;5093768;28;20051;-49
2023/12/22 12:33:36;;;;;;;6.68;0.95;;;7.40;99.90;;;;;;5093960;28;20059;-49
2023/12/22 12:36:04;;;;;;;8.43;1.20;;;7.50;99.90;;;;;;5093977;28;20059;-50
2023/12/22 12:38:54;;;;;;;7.78;0.98;;;7.50;99.90;;;;;;5093574;28;20080;-49
2023/12/22 12:41:32;;;;;;;3.72;0.88;;;7.40;99.90;;;;;;5093455;28;20398;-50
2023/12/22 12:44:02;;;;;;;;;;;7.50;99.90;;;;;;5094103;28;20044;-50
2023/12/22 12:46:35;;;;;;;4.65;0.80;;;7.40;99.90;;;;;;5094087;28;19926;-49
2023/12/22 12:49:11;;;;;;;5.30;0.90;;;7.40;99.90;;;;;;5097651;28;20098;-51
2023/12/22 12:51:41;;;;;;;4.30;0.63;;;7.40;99.90;;;;;;5097360;28;20048;-49
2023/12/22 12:54:08;;;;;;;4.72;1.00;;;7.40;99.90;;;;;;5097567;28;20059;-50
2023/12/22 12:56:51;;;;;;;8.35;0.70;;;7.40;99.90;;;;;;5097694;28;20048;-49